Thunderstorm Current Weather (METAR) For Antalya Airport

All times on the weather descriptions are local

Observed at 03:50 - (34 mins ago)

Thunderstorm

19°C

Thunderstorm
Clouds: Scattered Clouds at 1,500ft, Broken Clouds at 3,000ft
Wind: 150° at 10 knots, varying from 110° to 190, gusting 22 knots
Visibility: Greater than 10km
QNH: 1012
Dew Point: 14°C
Runway in Use: Runways 18L/C/R

Sunrise Today: 07:12
Sunset Today: 18:08

Forecast Weather (TAF) For Antalya Airport

Issued at 03:00 - (5 days 22 hrs ago)


Runway in Use: Unable to determine, wind is clam

Forecast valid until 03:00 on Friday

METAR/TAF RAW METAR / TAF

LTAI 250050Z 15010G22KT 110V190 9999 TS SCT015CB BKN030 19/14 Q1012 BECMG 04008KT

Weather Widget

Put weather from any of our airports on your website with our weather widget.

Find Another Search

Airport Search


Please Wait Please Wait - Loading
Close
Close

Login

Username:

Password:

Remember Me:

Remember me on this computer

Forgotten your password? Get a reset password sent to your registered e-mail address

Close

User Private Message

Subject:

Message: